Cominto, Arkansas
Current Conditions -  °F | °C
As of 5:53 AM on Friday 28 Nov 2014 (Local Time) from KLLQ Reporting Station
Clear Clear  
Wind Chill: -2°   Ceiling: Unl
Heat Index:   Visibility: 10mi
Dew Point: -2°   Wind: 5mph
Humidity: 85%   Direction: 150°SSE
Pressure: 30.4"   Gusts: NA
Location:  33.5819°N, 91.7907°W
Report Text: KLLQ 281153Z AUTO 15004KT 10SM CLR 01/M02 A3040 RMK AO2 SLP294 T00061017 10022 21006 56011
Loading
Personal Weather Stations






























Interactive Weather Map New forecast layout! Learn more

10-Day Weather Forecast

Advertisements
Track Severe Weather on mobile